createdAt,value
2022-10-22T00:00:00.855Z,15.00
2022-10-22T00:02:28.324Z,15.00
2022-10-22T00:04:57.093Z,15.00
2022-10-22T00:07:24.664Z,15.00
2022-10-22T00:09:52.014Z,15.00
2022-10-22T00:12:19.400Z,14.90
2022-10-22T00:14:46.817Z,14.90
2022-10-22T00:17:14.445Z,14.90
2022-10-22T00:19:41.725Z,14.90
2022-10-22T00:22:10.075Z,14.80
2022-10-22T00:24:37.668Z,14.90
2022-10-22T00:27:05.261Z,14.80
2022-10-22T00:29:32.711Z,14.80
2022-10-22T00:31:59.992Z,14.80
2022-10-22T00:34:27.355Z,14.80
2022-10-22T00:36:54.718Z,14.80
2022-10-22T00:39:23.427Z,14.80
2022-10-22T00:41:51.242Z,14.80
2022-10-22T00:44:56.156Z,14.80
2022-10-22T00:47:23.680Z,14.80
2022-10-22T00:49:51.070Z,14.80
2022-10-22T00:52:18.416Z,14.80
2022-10-22T00:54:45.688Z,14.80
2022-10-22T00:57:13.011Z,14.80
2022-10-22T00:59:40.295Z,14.80
2022-10-22T01:02:07.621Z,14.80
2022-10-22T01:04:34.909Z,14.80
2022-10-22T01:07:02.245Z,14.80
2022-10-22T01:09:46.907Z,14.70
2022-10-22T01:12:17.040Z,14.70
2022-10-22T01:14:50.195Z,14.70
2022-10-22T01:17:25.106Z,14.70
2022-10-22T01:20:24.564Z,14.60
2022-10-22T01:23:21.288Z,14.60
2022-10-22T01:25:54.466Z,14.50
2022-10-22T01:28:42.919Z,14.50
2022-10-22T01:31:10.280Z,14.50
2022-10-22T01:33:37.680Z,14.50
2022-10-22T01:36:05.204Z,14.50
2022-10-22T01:38:32.522Z,14.50
2022-10-22T01:40:59.855Z,14.50
2022-10-22T01:43:27.269Z,14.50
2022-10-22T01:45:57.587Z,14.50
2022-10-22T01:48:35.467Z,14.50
2022-10-22T01:51:26.027Z,14.50
2022-10-22T01:54:00.048Z,14.50
2022-10-22T01:56:51.935Z,14.40
2022-10-22T01:59:37.732Z,14.40
2022-10-22T02:02:16.947Z,14.40
2022-10-22T02:04:58.890Z,14.40
2022-10-22T02:07:28.871Z,14.40
2022-10-22T02:09:56.174Z,14.40
2022-10-22T02:12:23.466Z,14.40
2022-10-22T02:14:50.830Z,14.40
2022-10-22T02:17:20.158Z,14.40
2022-10-22T02:20:22.162Z,14.40
2022-10-22T02:22:49.565Z,14.40
2022-10-22T02:25:16.984Z,14.40
2022-10-22T02:27:46.992Z,14.40
2022-10-22T02:30:18.735Z,14.30
2022-10-22T02:32:46.030Z,14.40
2022-10-22T02:35:15.875Z,14.40
2022-10-22T02:37:43.179Z,14.40
2022-10-22T02:40:10.736Z,14.40
2022-10-22T02:42:38.584Z,14.40
2022-10-22T02:45:06.595Z,14.40
2022-10-22T02:47:33.950Z,14.40
2022-10-22T02:50:01.218Z,14.40
2022-10-22T02:52:28.519Z,14.40
2022-10-22T02:54:55.767Z,14.40
2022-10-22T02:57:23.358Z,14.40
2022-10-22T02:59:50.718Z,14.40
2022-10-22T03:02:18.119Z,14.40
2022-10-22T03:04:45.775Z,14.30
2022-10-22T03:07:13.067Z,14.40
2022-10-22T03:09:40.463Z,14.30
2022-10-22T03:12:08.615Z,14.30
2022-10-22T03:14:36.123Z,14.30
2022-10-22T03:17:03.455Z,14.30
2022-10-22T03:19:30.828Z,14.30
2022-10-22T03:22:02.708Z,14.30
2022-10-22T03:24:41.400Z,14.30
2022-10-22T03:27:08.936Z,14.30
2022-10-22T03:29:37.435Z,14.30
2022-10-22T03:32:04.944Z,14.30
2022-10-22T03:34:32.241Z,14.30
2022-10-22T03:37:00.047Z,14.20
2022-10-22T03:39:28.732Z,14.20
2022-10-22T03:41:56.011Z,14.20
2022-10-22T03:44:23.380Z,14.20
2022-10-22T03:46:50.774Z,14.20
2022-10-22T03:49:18.086Z,14.10
2022-10-22T03:51:45.377Z,14.10
2022-10-22T03:54:12.705Z,14.10
2022-10-22T03:56:39.964Z,14.00
2022-10-22T03:59:07.292Z,14.00
2022-10-22T04:01:34.861Z,13.90
2022-10-22T04:04:02.239Z,13.90
2022-10-22T04:06:29.835Z,13.80
2022-10-22T04:08:57.276Z,13.80
2022-10-22T04:11:24.612Z,13.80
2022-10-22T04:13:51.869Z,13.80
2022-10-22T04:16:20.467Z,13.70
2022-10-22T04:18:48.574Z,13.70
2022-10-22T04:21:18.065Z,13.70
2022-10-22T04:23:52.135Z,13.70
2022-10-22T04:26:19.878Z,13.70
2022-10-22T04:28:47.842Z,13.60
2022-10-22T04:31:19.602Z,13.60
2022-10-22T04:33:47.115Z,13.60
2022-10-22T04:36:16.362Z,13.60
2022-10-22T04:38:44.157Z,13.60
2022-10-22T04:41:13.159Z,13.50
2022-10-22T04:43:40.657Z,13.50
2022-10-22T04:46:09.251Z,13.50
2022-10-22T04:48:37.105Z,13.50
2022-10-22T04:51:05.233Z,13.50
2022-10-22T04:53:33.393Z,13.50
2022-10-22T04:56:11.422Z,13.50
2022-10-22T04:58:38.975Z,13.40
2022-10-22T05:01:14.265Z,13.40
2022-10-22T05:03:41.938Z,13.40
2022-10-22T05:06:09.331Z,13.40
2022-10-22T05:08:36.911Z,13.40
2022-10-22T05:11:17.732Z,13.40
2022-10-22T05:13:45.314Z,13.40
2022-10-22T05:16:13.083Z,13.30
2022-10-22T05:18:41.758Z,13.30
2022-10-22T05:21:10.496Z,13.30
2022-10-22T05:23:37.959Z,13.20
2022-10-22T05:26:06.122Z,13.20
2022-10-22T05:28:33.775Z,13.20
2022-10-22T05:31:01.751Z,13.20
2022-10-22T05:33:29.562Z,13.30
2022-10-22T05:35:57.009Z,13.30
2022-10-22T05:38:24.523Z,13.30
2022-10-22T05:41:10.715Z,13.30
2022-10-22T05:43:38.081Z,13.30
2022-10-22T05:46:10.155Z,13.40
2022-10-22T05:48:37.771Z,13.40
2022-10-22T05:51:06.376Z,13.40
2022-10-22T05:53:34.512Z,13.40
2022-10-22T05:56:02.837Z,13.40
2022-10-22T05:58:30.211Z,13.40
2022-10-22T06:01:08.835Z,13.40
2022-10-22T06:03:36.225Z,13.40
2022-10-22T06:06:07.887Z,13.40
2022-10-22T06:08:35.241Z,13.40
2022-10-22T06:11:02.590Z,13.40
2022-10-22T06:13:29.882Z,13.40
2022-10-22T06:15:57.281Z,13.40
2022-10-22T06:18:24.567Z,13.40
2022-10-22T06:20:51.915Z,13.40
2022-10-22T06:23:19.359Z,13.40
2022-10-22T06:25:56.523Z,13.40
2022-10-22T06:30:58.117Z,13.40
2022-10-22T06:33:26.259Z,13.40
2022-10-22T06:35:53.650Z,13.50
2022-10-22T06:38:21.010Z,13.50
2022-10-22T06:40:48.401Z,13.50
2022-10-22T06:43:15.750Z,13.50
2022-10-22T06:45:43.074Z,13.50
2022-10-22T06:48:10.409Z,13.60
2022-10-22T06:50:37.704Z,13.60
2022-10-22T06:53:05.078Z,13.60
2022-10-22T06:55:32.347Z,13.60
2022-10-22T06:57:59.655Z,13.70
2022-10-22T07:00:27.103Z,13.70
2022-10-22T07:02:57.795Z,13.70
2022-10-22T07:05:26.591Z,13.70
2022-10-22T07:07:53.891Z,13.70
2022-10-22T07:10:21.263Z,13.70
2022-10-22T07:12:48.518Z,13.80
2022-10-22T07:15:15.864Z,13.70
2022-10-22T07:17:43.106Z,13.70
2022-10-22T07:20:10.880Z,13.80
2022-10-22T07:22:38.479Z,13.80
2022-10-22T07:25:07.325Z,13.80
2022-10-22T07:27:34.827Z,13.80
2022-10-22T07:30:02.206Z,13.80
2022-10-22T07:32:29.480Z,13.80
2022-10-22T07:34:56.770Z,13.80
2022-10-22T07:37:24.168Z,13.90
2022-10-22T07:39:51.500Z,13.90
2022-10-22T07:42:18.831Z,13.90
2022-10-22T07:44:46.239Z,14.00
2022-10-22T07:47:13.543Z,14.00
2022-10-22T07:49:40.834Z,14.00
2022-10-22T07:52:08.204Z,14.10
2022-10-22T07:54:35.530Z,14.10
2022-10-22T07:57:02.859Z,14.20
2022-10-22T07:59:30.287Z,14.20
2022-10-22T08:01:57.566Z,14.30
2022-10-22T08:04:24.882Z,14.40
2022-10-22T08:06:52.154Z,14.40
2022-10-22T08:09:19.528Z,14.40
2022-10-22T08:11:47.029Z,14.50
2022-10-22T08:14:14.473Z,14.50
2022-10-22T08:16:41.862Z,14.50
2022-10-22T08:19:09.227Z,14.50
2022-10-22T08:21:36.568Z,14.50
2022-10-22T08:24:04.056Z,14.60
2022-10-22T08:26:31.446Z,14.60
2022-10-22T08:28:58.742Z,14.60
2022-10-22T08:31:26.035Z,14.60
2022-10-22T08:33:53.376Z,14.60
2022-10-22T08:36:20.634Z,14.60
2022-10-22T08:38:47.947Z,14.60
2022-10-22T08:41:19.811Z,14.70
2022-10-22T08:44:12.233Z,14.70
2022-10-22T08:46:47.636Z,14.70
2022-10-22T08:49:23.231Z,14.80
2022-10-22T08:51:50.539Z,14.70
2022-10-22T08:54:28.867Z,14.80
2022-10-22T08:57:08.860Z,14.80
2022-10-22T08:59:38.634Z,14.80
2022-10-22T09:02:14.663Z,14.90
2022-10-22T09:04:45.515Z,14.90
2022-10-22T09:07:12.856Z,15.00
2022-10-22T09:09:42.620Z,15.00
2022-10-22T09:12:19.423Z,15.00
2022-10-22T09:14:47.846Z,15.10
2022-10-22T09:17:52.933Z,15.10
2022-10-22T09:20:30.505Z,15.10
2022-10-22T09:23:16.290Z,15.10
2022-10-22T09:25:44.895Z,15.10
2022-10-22T09:28:12.225Z,15.10
2022-10-22T09:30:40.227Z,15.20
2022-10-22T09:33:07.529Z,15.20
2022-10-22T09:35:44.387Z,15.30
2022-10-22T09:38:12.474Z,15.40
2022-10-22T09:40:44.253Z,15.50
2022-10-22T09:43:12.865Z,15.50
2022-10-22T09:45:41.025Z,15.50
2022-10-22T09:48:14.968Z,15.60
2022-10-22T09:50:43.582Z,15.70
2022-10-22T09:53:20.774Z,15.70
2022-10-22T09:58:28.595Z,15.80
2022-10-22T10:01:00.540Z,15.80
2022-10-22T10:03:29.618Z,15.80
2022-10-22T10:06:01.629Z,16.10
2022-10-22T10:08:32.613Z,16.50
2022-10-22T10:11:06.733Z,16.90
2022-10-22T10:13:57.614Z,17.30
2022-10-22T10:16:43.383Z,17.60
2022-10-22T10:19:38.562Z,18.00
2022-10-22T10:22:14.563Z,18.30
2022-10-22T10:24:58.806Z,18.50
2022-10-22T10:27:55.315Z,18.60
2022-10-22T10:30:25.760Z,18.70
2022-10-22T10:32:58.956Z,18.80
2022-10-22T10:35:55.064Z,18.90
2022-10-22T10:38:33.309Z,18.80
2022-10-22T10:41:03.630Z,18.80
2022-10-22T10:44:07.904Z,18.80
2022-10-22T10:46:59.803Z,18.90
2022-10-22T10:49:27.468Z,19.10
2022-10-22T10:52:14.407Z,19.20
2022-10-22T10:55:10.780Z,19.20
2022-10-22T10:57:41.263Z,19.00
2022-10-22T11:00:16.639Z,18.60
2022-10-22T11:03:15.336Z,18.40
2022-10-22T11:05:50.761Z,18.10
2022-10-22T11:08:18.129Z,18.00
2022-10-22T11:11:06.731Z,18.20
2022-10-22T11:13:39.439Z,18.40
2022-10-22T11:16:19.653Z,18.70
2022-10-22T11:18:52.889Z,18.90
2022-10-22T11:21:28.332Z,19.00
2022-10-22T11:24:25.764Z,19.00
2022-10-22T11:26:54.421Z,19.10
2022-10-22T11:29:28.218Z,19.20
2022-10-22T11:31:57.964Z,19.20
2022-10-22T11:34:34.434Z,19.20
2022-10-22T11:37:03.175Z,19.20
2022-10-22T11:39:35.228Z,19.20
2022-10-22T11:42:05.235Z,19.20
2022-10-22T11:44:35.276Z,19.20
2022-10-22T11:47:25.966Z,19.10
2022-10-22T11:49:57.995Z,19.10
2022-10-22T11:52:28.272Z,19.10
2022-10-22T11:54:57.765Z,18.90
2022-10-22T11:57:38.599Z,18.90
2022-10-22T12:00:39.820Z,18.90
2022-10-22T12:03:32.511Z,18.80
2022-10-22T12:06:12.839Z,18.80
2022-10-22T12:08:49.517Z,18.80
2022-10-22T12:11:19.857Z,18.70
2022-10-22T12:13:59.210Z,18.60
2022-10-22T12:17:02.762Z,18.60
2022-10-22T12:19:38.619Z,18.70
2022-10-22T12:22:20.998Z,18.70
2022-10-22T12:24:49.800Z,18.60
2022-10-22T12:27:22.769Z,18.50
2022-10-22T12:29:57.367Z,18.40
2022-10-22T12:32:34.999Z,18.30
2022-10-22T12:35:07.088Z,18.30
2022-10-22T12:37:36.660Z,18.50
2022-10-22T12:40:27.807Z,18.50
2022-10-22T12:43:03.024Z,18.70
2022-10-22T12:45:31.984Z,18.80
2022-10-22T12:48:03.590Z,18.90
2022-10-22T12:50:38.276Z,19.10
2022-10-22T12:53:37.635Z,19.20
2022-10-22T12:56:11.361Z,19.30
2022-10-22T12:58:42.836Z,19.20
2022-10-22T13:01:14.394Z,19.20
2022-10-22T13:03:44.688Z,19.10
2022-10-22T13:06:20.936Z,19.20
2022-10-22T13:09:00.113Z,19.10
2022-10-22T13:11:34.873Z,19.20
2022-10-22T13:14:05.560Z,19.20
2022-10-22T13:16:33.294Z,19.10
2022-10-22T13:19:00.814Z,19.10
2022-10-22T13:21:32.719Z,19.10
2022-10-22T13:24:02.149Z,19.10
2022-10-22T13:26:34.350Z,19.10
2022-10-22T13:29:01.690Z,19.20
2022-10-22T13:31:32.166Z,19.20
2022-10-22T13:34:09.944Z,19.10
2022-10-22T13:36:39.203Z,19.30
2022-10-22T13:39:08.081Z,19.30
2022-10-22T13:44:10.724Z,19.30
2022-10-22T13:46:42.483Z,19.30
2022-10-22T13:49:15.532Z,19.20
2022-10-22T13:51:42.887Z,19.10
2022-10-22T13:54:18.176Z,19.00
2022-10-22T13:56:45.623Z,18.90
2022-10-22T13:59:12.892Z,18.90
2022-10-22T14:01:40.335Z,18.80
2022-10-22T14:04:08.175Z,18.80
2022-10-22T14:09:08.809Z,18.60
2022-10-22T14:11:36.340Z,18.60
2022-10-22T14:14:05.016Z,18.60
2022-10-22T14:16:33.276Z,18.60
2022-10-22T14:19:00.980Z,18.50
2022-10-22T14:21:30.438Z,18.50
2022-10-22T14:23:57.725Z,18.50
2022-10-22T14:26:31.379Z,18.40
2022-10-22T14:29:09.131Z,18.40
2022-10-22T14:34:15.262Z,18.40
2022-10-22T14:36:44.056Z,18.30
2022-10-22T14:39:12.728Z,18.20
2022-10-22T14:41:40.937Z,18.20
2022-10-22T14:44:12.650Z,18.30
2022-10-22T14:46:42.612Z,18.30
2022-10-22T14:49:10.039Z,18.30
2022-10-22T14:51:37.334Z,18.30
2022-10-22T14:54:04.767Z,18.30
2022-10-22T14:56:32.165Z,18.30
2022-10-22T14:58:59.545Z,18.30
2022-10-22T15:01:26.839Z,18.40
2022-10-22T15:03:54.240Z,18.40
2022-10-22T15:06:21.546Z,18.40
2022-10-22T15:08:48.914Z,18.40
2022-10-22T15:11:16.278Z,18.30
2022-10-22T15:13:43.680Z,18.20
2022-10-22T15:16:11.312Z,18.20
2022-10-22T15:18:38.733Z,18.10
2022-10-22T15:21:07.909Z,18.10
2022-10-22T15:23:36.371Z,18.10
2022-10-22T15:26:03.687Z,18.00
2022-10-22T15:28:30.983Z,17.90
2022-10-22T15:30:59.219Z,17.90
2022-10-22T15:33:27.111Z,17.80
2022-10-22T15:35:55.382Z,17.90
2022-10-22T15:41:04.587Z,17.80
2022-10-22T15:43:33.979Z,17.80
2022-10-22T15:46:15.380Z,17.80
2022-10-22T15:48:42.730Z,17.80
2022-10-22T15:51:19.346Z,17.90
2022-10-22T15:53:54.432Z,18.00
2022-10-22T15:56:22.030Z,18.10
2022-10-22T15:58:53.395Z,18.20
2022-10-22T16:01:20.765Z,18.40
2022-10-22T16:03:48.199Z,18.40
2022-10-22T16:06:15.553Z,18.50
2022-10-22T16:08:42.894Z,18.50
2022-10-22T16:11:10.294Z,18.30
2022-10-22T16:13:37.879Z,18.00
2022-10-22T16:16:07.384Z,17.80
2022-10-22T16:18:34.743Z,17.50
2022-10-22T16:21:02.028Z,17.30
2022-10-22T16:23:29.410Z,17.20
2022-10-22T16:25:56.672Z,17.00
2022-10-22T16:28:24.154Z,16.90
2022-10-22T16:30:51.514Z,16.70
2022-10-22T16:33:19.075Z,16.60
2022-10-22T16:35:47.600Z,16.50
2022-10-22T16:38:14.972Z,16.40
2022-10-22T16:40:42.286Z,16.30
2022-10-22T16:43:09.646Z,16.10
2022-10-22T16:45:36.969Z,16.00
2022-10-22T16:48:04.520Z,16.00
2022-10-22T16:50:31.790Z,15.90
2022-10-22T16:52:59.100Z,15.80
2022-10-22T16:55:26.395Z,15.70
2022-10-22T16:57:53.811Z,15.60
2022-10-22T17:00:21.354Z,15.60
2022-10-22T17:02:53.202Z,15.50
2022-10-22T17:05:20.890Z,15.40
2022-10-22T17:07:48.531Z,15.30
2022-10-22T17:10:16.689Z,15.30
2022-10-22T17:12:44.294Z,15.20
2022-10-22T17:15:11.741Z,15.20
2022-10-22T17:17:39.269Z,15.10
2022-10-22T17:20:06.990Z,15.10
2022-10-22T17:22:34.259Z,15.10
2022-10-22T17:25:14.225Z,15.00
2022-10-22T17:27:42.804Z,15.00
2022-10-22T17:30:23.323Z,14.90
2022-10-22T17:32:54.198Z,14.80
2022-10-22T17:35:21.607Z,14.80
2022-10-22T17:37:49.035Z,14.80
2022-10-22T17:40:16.452Z,14.70
2022-10-22T17:42:45.422Z,14.70
2022-10-22T17:45:12.737Z,14.70
2022-10-22T17:47:40.321Z,14.60
2022-10-22T17:50:14.722Z,14.60
2022-10-22T17:52:42.873Z,14.50
2022-10-22T17:55:13.545Z,14.50
2022-10-22T17:57:40.882Z,14.50
2022-10-22T18:00:08.874Z,14.40
2022-10-22T18:02:36.311Z,14.40
2022-10-22T18:05:03.702Z,14.40
2022-10-22T18:07:31.029Z,14.30
2022-10-22T18:09:58.319Z,14.30
2022-10-22T18:12:25.689Z,14.20
2022-10-22T18:14:53.003Z,14.30
2022-10-22T18:17:20.308Z,14.30
2022-10-22T18:19:49.390Z,14.30
2022-10-22T18:22:16.687Z,14.20
2022-10-22T18:24:43.966Z,14.20
2022-10-22T18:27:11.258Z,14.10
2022-10-22T18:29:38.582Z,14.10
2022-10-22T18:32:12.092Z,14.10
2022-10-22T18:34:40.428Z,14.10
2022-10-22T18:37:16.088Z,14.00
2022-10-22T18:39:43.399Z,14.00
2022-10-22T18:42:10.807Z,14.00
2022-10-22T18:44:38.098Z,14.00
2022-10-22T18:47:06.211Z,14.00
2022-10-22T18:49:33.515Z,14.00
2022-10-22T18:52:01.120Z,14.00
2022-10-22T18:54:28.398Z,14.00
2022-10-22T18:57:01.970Z,13.90
2022-10-22T18:59:30.645Z,14.00
2022-10-22T19:01:59.562Z,13.90
2022-10-22T19:04:33.014Z,13.90
2022-10-22T19:07:00.397Z,13.90
2022-10-22T19:09:27.759Z,13.90
2022-10-22T19:11:55.029Z,13.90
2022-10-22T19:14:22.413Z,13.90
2022-10-22T19:16:49.884Z,13.90
2022-10-22T19:19:19.369Z,14.00
2022-10-22T19:21:47.055Z,13.90
2022-10-22T19:24:15.351Z,13.90
2022-10-22T19:26:42.632Z,13.90
2022-10-22T19:29:11.017Z,13.80
2022-10-22T19:31:38.470Z,13.80
2022-10-22T19:34:05.759Z,13.80
2022-10-22T19:36:34.401Z,13.80
2022-10-22T19:39:02.168Z,13.80
2022-10-22T19:41:30.195Z,13.80
2022-10-22T19:43:57.848Z,13.80
2022-10-22T19:46:25.770Z,13.80
2022-10-22T19:48:54.100Z,13.80
2022-10-22T19:51:22.935Z,13.80
2022-10-22T19:53:50.258Z,13.80
2022-10-22T19:56:19.880Z,13.80
2022-10-22T19:58:47.213Z,13.80
2022-10-22T20:01:16.088Z,13.80
2022-10-22T20:03:43.606Z,13.80
2022-10-22T20:06:11.637Z,13.80
2022-10-22T20:08:39.359Z,13.80
2022-10-22T20:11:12.378Z,13.80
2022-10-22T20:16:14.482Z,13.70
2022-10-22T20:18:41.754Z,13.70
2022-10-22T20:21:13.878Z,13.70
2022-10-22T20:23:41.632Z,13.60
2022-10-22T20:26:09.023Z,13.60
2022-10-22T20:28:36.951Z,13.60
2022-10-22T20:31:12.000Z,13.60
2022-10-22T20:33:39.266Z,13.60
2022-10-22T20:36:08.691Z,13.60
2022-10-22T20:41:06.091Z,13.60
2022-10-22T20:43:33.502Z,13.50
2022-10-22T20:46:00.949Z,13.50
2022-10-22T20:48:31.166Z,13.50
2022-10-22T20:50:59.036Z,13.50
2022-10-22T20:53:26.667Z,13.50
2022-10-22T20:55:56.760Z,13.60
2022-10-22T21:01:21.806Z,13.60
2022-10-22T21:03:51.455Z,13.60
2022-10-22T21:06:30.435Z,13.50
2022-10-22T21:08:57.855Z,13.60
2022-10-22T21:11:25.354Z,13.50
2022-10-22T21:13:52.699Z,13.50
2022-10-22T21:16:20.064Z,13.50
2022-10-22T21:18:47.534Z,13.50
2022-10-22T21:21:17.050Z,13.50
2022-10-22T21:23:44.494Z,13.50
2022-10-22T21:26:11.904Z,13.40
2022-10-22T21:28:39.298Z,13.50
2022-10-22T21:31:07.962Z,13.50
2022-10-22T21:33:38.919Z,13.50
2022-10-22T21:36:06.928Z,13.40
2022-10-22T21:38:34.489Z,13.40
2022-10-22T21:41:09.176Z,13.40
2022-10-22T21:43:40.263Z,13.40
2022-10-22T21:46:15.654Z,13.40
2022-10-22T21:48:43.131Z,13.40
2022-10-22T21:51:12.362Z,13.30
2022-10-22T21:53:39.958Z,13.40
2022-10-22T21:56:07.822Z,13.30
2022-10-22T21:58:35.692Z,13.30
2022-10-22T22:01:03.464Z,13.30
2022-10-22T22:03:30.855Z,13.30
2022-10-22T22:05:59.300Z,13.20
2022-10-22T22:08:26.651Z,13.20
2022-10-22T22:10:59.783Z,13.20
2022-10-22T22:13:27.107Z,13.20
2022-10-22T22:15:54.355Z,13.20
2022-10-22T22:18:21.648Z,13.10
2022-10-22T22:20:48.935Z,13.10
2022-10-22T22:23:16.209Z,13.10
2022-10-22T22:25:43.531Z,13.10
2022-10-22T22:28:10.837Z,13.00
2022-10-22T22:30:38.115Z,13.00
2022-10-22T22:33:05.411Z,13.00
2022-10-22T22:35:34.566Z,12.90
2022-10-22T22:38:02.043Z,12.90
2022-10-22T22:40:31.514Z,12.90
2022-10-22T22:43:01.015Z,12.90
2022-10-22T22:45:28.310Z,12.80
2022-10-22T22:47:55.591Z,12.80
2022-10-22T22:50:22.902Z,12.80
2022-10-22T22:52:50.187Z,12.80
2022-10-22T22:55:17.574Z,12.70
2022-10-22T22:57:44.883Z,12.70
2022-10-22T23:00:13.039Z,12.70
2022-10-22T23:02:40.645Z,12.70
2022-10-22T23:05:08.441Z,12.70
2022-10-22T23:07:35.714Z,12.70
2022-10-22T23:10:03.112Z,12.70
2022-10-22T23:12:30.415Z,12.70
2022-10-22T23:15:02.000Z,12.70
2022-10-22T23:17:29.375Z,12.70
2022-10-22T23:19:56.686Z,12.60
2022-10-22T23:22:24.011Z,12.60
2022-10-22T23:24:51.335Z,12.60
2022-10-22T23:27:18.603Z,12.60
2022-10-22T23:29:45.874Z,12.60
2022-10-22T23:32:14.381Z,12.60
2022-10-22T23:34:41.691Z,12.60
2022-10-22T23:37:10.827Z,12.60
2022-10-22T23:39:38.182Z,12.60
2022-10-22T23:42:05.518Z,12.60
2022-10-22T23:44:32.790Z,12.60
2022-10-22T23:47:00.119Z,12.60
2022-10-22T23:49:27.483Z,12.50
2022-10-22T23:51:54.756Z,12.50
2022-10-22T23:54:22.031Z,12.40
2022-10-22T23:56:49.328Z,12.40
2022-10-22T23:59:16.678Z,12.40
